createdAt,value
2022-12-09T00:00:49.413Z,16.13
2022-12-09T00:10:52.106Z,11.23
2022-12-09T00:20:54.481Z,11.77
2022-12-09T00:31:01.760Z,9.75
2022-12-09T00:41:04.994Z,13.17
2022-12-09T00:51:09.294Z,12.48
2022-12-09T01:01:11.792Z,17.45
2022-12-09T01:11:24.403Z,10.88
2022-12-09T01:21:28.741Z,11.57
2022-12-09T01:31:31.361Z,11.50
2022-12-09T01:41:34.441Z,10.50
2022-12-09T01:51:38.017Z,10.40
2022-12-09T02:01:43.191Z,11.43
2022-12-09T02:11:48.676Z,9.68
2022-12-09T02:21:59.385Z,16.52
2022-12-09T02:32:20.301Z,12.95
2022-12-09T02:42:25.958Z,14.95
2022-12-09T02:52:31.096Z,12.18
2022-12-09T03:02:36.832Z,15.43
2022-12-09T03:12:43.355Z,15.70
2022-12-09T03:22:48.267Z,21.40
2022-12-09T03:32:51.563Z,17.05
2022-12-09T03:43:01.398Z,15.68
2022-12-09T03:53:21.531Z,20.98
2022-12-09T04:03:24.513Z,17.50
2022-12-09T04:13:26.983Z,18.40
2022-12-09T04:23:29.225Z,23.10
2022-12-09T04:33:32.515Z,16.27
2022-12-09T04:43:35.212Z,18.00
2022-12-09T04:53:38.202Z,16.58
2022-12-09T05:03:41.347Z,11.30
2022-12-09T05:13:44.260Z,9.80
2022-12-09T05:23:46.766Z,7.75
2022-12-09T05:33:51.308Z,7.38
2022-12-09T05:43:54.137Z,8.65
2022-12-09T05:54:00.304Z,8.00
2022-12-09T06:04:03.089Z,4.28
2022-12-09T06:14:08.924Z,5.85
2022-12-09T06:24:11.181Z,6.53
2022-12-09T06:34:13.824Z,5.38
2022-12-09T06:44:23.266Z,3.97
2022-12-09T06:54:26.639Z,5.28
2022-12-09T07:04:29.506Z,5.75
2022-12-09T07:14:32.633Z,6.10
2022-12-09T07:24:35.231Z,5.70
2022-12-09T07:34:38.917Z,6.22
2022-12-09T07:44:41.275Z,6.20
2022-12-09T07:54:43.710Z,6.15
2022-12-09T08:04:46.058Z,7.80
2022-12-09T08:14:48.816Z,10.40
2022-12-09T08:24:51.029Z,7.20
2022-12-09T08:34:53.417Z,8.02
2022-12-09T08:45:01.669Z,6.63
2022-12-09T08:55:05.098Z,8.02
2022-12-09T09:05:08.230Z,8.63
2022-12-09T09:15:11.493Z,7.47
2022-12-09T09:25:15.252Z,13.40
2022-12-09T09:35:18.204Z,9.55
2022-12-09T09:45:23.525Z,10.70
2022-12-09T09:55:48.365Z,13.52
2022-12-09T10:05:55.251Z,10.52
2022-12-09T10:16:14.303Z,12.13
2022-12-09T10:26:25.724Z,14.05
2022-12-09T10:36:35.484Z,16.58
2022-12-09T10:46:38.925Z,13.30
2022-12-09T10:57:02.134Z,21.05
2022-12-09T11:07:16.588Z,36.40
2022-12-09T11:17:35.975Z,25.42
2022-12-09T11:27:44.802Z,21.15
2022-12-09T11:37:48.130Z,16.83
2022-12-09T11:48:24.187Z,18.30
2022-12-09T11:58:20.522Z,14.77
2022-12-09T12:08:40.812Z,26.63
2022-12-09T12:18:56.222Z,23.55
2022-12-09T12:29:19.317Z,23.42
2022-12-09T12:39:40.270Z,19.33
2022-12-09T12:50:07.581Z,22.35
2022-12-09T13:00:22.346Z,18.95
2022-12-09T13:10:34.791Z,25.35
2022-12-09T13:20:58.764Z,22.85
2022-12-09T13:31:01.567Z,14.55
2022-12-09T13:41:31.610Z,41.85
2022-12-09T13:51:46.032Z,40.60
2022-12-09T14:02:11.259Z,39.65
2022-12-09T14:12:26.724Z,36.95
2022-12-09T14:22:34.041Z,42.28
2022-12-09T14:32:57.234Z,32.20
2022-12-09T14:43:12.092Z,18.02
2022-12-09T14:53:23.435Z,15.93
2022-12-09T15:03:39.127Z,26.50
2022-12-09T15:13:49.919Z,23.25
2022-12-09T15:23:52.783Z,21.20
2022-12-09T15:34:00.385Z,32.20
2022-12-09T15:44:09.374Z,58.03
2022-12-09T15:54:18.984Z,41.22
2022-12-09T16:04:24.505Z,25.88
2022-12-09T16:14:40.271Z,43.63
2022-12-09T16:35:11.686Z,47.10
2022-12-09T16:45:35.105Z,48.95
2022-12-09T16:55:37.394Z,69.68
2022-12-09T17:05:43.189Z,67.85
2022-12-09T17:15:51.773Z,65.07
2022-12-09T17:26:02.910Z,59.88
2022-12-09T17:36:06.055Z,85.45
2022-12-09T17:46:09.810Z,86.65
2022-12-09T17:56:14.751Z,78.18
2022-12-09T18:06:17.165Z,61.20
2022-12-09T18:16:20.458Z,40.72
2022-12-09T18:26:28.602Z,32.53
2022-12-09T18:36:32.790Z,33.13
2022-12-09T18:46:37.891Z,33.85
2022-12-09T18:56:40.707Z,38.63
2022-12-09T19:06:45.127Z,33.63
2022-12-09T19:16:48.038Z,26.95
2022-12-09T19:26:53.279Z,43.60
2022-12-09T19:36:58.629Z,35.83
2022-12-09T19:47:01.151Z,32.22
2022-12-09T19:57:03.465Z,25.80
2022-12-09T20:07:08.124Z,21.35
2022-12-09T20:17:10.839Z,32.25
2022-12-09T20:27:13.236Z,27.52
2022-12-09T20:37:15.566Z,29.65
2022-12-09T20:47:17.801Z,29.10
2022-12-09T20:57:19.978Z,34.75
2022-12-09T21:07:22.313Z,33.75
2022-12-09T21:17:24.565Z,33.15
2022-12-09T21:27:26.845Z,38.67
2022-12-09T21:40:09.962Z,37.45
2022-12-09T21:50:12.348Z,40.42
2022-12-09T22:10:12.757Z,41.55
2022-12-09T22:20:54.038Z,33.47
2022-12-09T22:30:37.279Z,38.17
2022-12-09T22:40:39.619Z,37.00
2022-12-09T22:50:41.779Z,41.50
2022-12-09T23:00:44.181Z,40.05
2022-12-09T23:10:46.444Z,40.50
2022-12-09T23:20:48.915Z,47.22
2022-12-09T23:30:51.214Z,44.97
2022-12-09T23:40:54.034Z,43.10
2022-12-09T23:50:57.015Z,46.72
